createdAt,value
2018-12-27T00:02:15.936Z,100523.66
2018-12-27T00:04:48.672Z,100526.98
2018-12-27T00:07:21.144Z,100524.17
2018-12-27T00:09:50.628Z,100520.03
2018-12-27T00:12:20.076Z,100526.64
2018-12-27T00:14:50.414Z,100522.00
2018-12-27T00:17:19.922Z,100517.70
2018-12-27T00:19:49.348Z,100523.84
2018-12-27T00:22:30.460Z,100524.66
2018-12-27T00:25:00.157Z,100521.67
2018-12-27T00:27:29.552Z,100517.70
2018-12-27T00:30:01.644Z,100516.54
2018-12-27T00:32:31.298Z,100517.51
2018-12-27T00:35:01.081Z,100513.70
2018-12-27T00:40:06.084Z,100506.06
2018-12-27T00:42:47.414Z,100505.91
2018-12-27T00:45:16.986Z,100507.40
2018-12-27T00:47:46.625Z,100504.05
2018-12-27T00:50:16.201Z,100506.57
2018-12-27T00:52:45.828Z,100510.39
2018-12-27T00:55:15.376Z,100505.58
2018-12-27T00:57:44.998Z,100508.90
2018-12-27T01:00:14.657Z,100511.22
2018-12-27T01:02:44.447Z,100513.55
2018-12-27T01:05:14.235Z,100513.34
2018-12-27T01:07:44.483Z,100506.21
2018-12-27T01:10:16.362Z,100517.33
2018-12-27T01:12:45.945Z,100500.90
2018-12-27T01:15:15.698Z,100506.05
2018-12-27T01:17:45.386Z,100500.23
2018-12-27T01:20:22.391Z,100498.58
2018-12-27T01:23:03.606Z,100497.41
2018-12-27T01:25:33.200Z,100501.56
2018-12-27T01:28:02.823Z,100501.53
2018-12-27T01:30:32.450Z,100497.21
2018-12-27T01:33:02.031Z,100491.39
2018-12-27T01:35:31.562Z,100494.88
2018-12-27T01:38:01.210Z,100499.37
2018-12-27T01:43:06.395Z,100493.72
2018-12-27T01:48:17.764Z,100485.41
2018-12-27T01:50:47.730Z,100487.08
2018-12-27T01:53:17.414Z,100484.09
2018-12-27T01:55:46.962Z,100476.95
2018-12-27T01:58:16.534Z,100479.11
2018-12-27T02:00:46.067Z,100488.91
2018-12-27T02:03:15.819Z,100488.07
2018-12-27T02:05:45.376Z,100488.91
2018-12-27T02:08:14.965Z,100494.37
2018-12-27T02:10:45.135Z,100493.72
2018-12-27T02:13:14.681Z,100491.06
2018-12-27T02:15:44.577Z,100492.88
2018-12-27T02:18:14.368Z,100485.08
2018-12-27T02:20:46.344Z,100483.42
2018-12-27T02:23:15.902Z,100483.09
2018-12-27T02:25:46.464Z,100488.57
2018-12-27T02:31:04.907Z,100483.92
2018-12-27T02:33:35.872Z,100484.59
2018-12-27T02:36:05.346Z,100476.45
2018-12-27T02:38:35.168Z,100481.77
2018-12-27T02:41:04.715Z,100478.95
2018-12-27T02:43:34.278Z,100483.44
2018-12-27T02:46:03.862Z,100480.64
2018-12-27T02:48:33.414Z,100485.46
2018-12-27T02:51:03.075Z,100480.31
2018-12-27T02:53:33.173Z,100473.02
2018-12-27T02:56:02.717Z,100480.16
2018-12-27T02:58:32.458Z,100479.32
2018-12-27T03:01:04.518Z,100476.66
2018-12-27T03:03:34.131Z,100471.69
2018-12-27T03:06:03.682Z,100471.72
2018-12-27T03:08:36.389Z,100478.69
2018-12-27T03:11:05.941Z,100471.56
2018-12-27T03:13:35.504Z,100477.37
2018-12-27T03:16:05.134Z,100479.52
2018-12-27T03:18:34.803Z,100475.38
2018-12-27T03:21:04.333Z,100476.03
2018-12-27T03:23:34.012Z,100476.17
2018-12-27T03:26:03.583Z,100479.02
2018-12-27T03:28:33.129Z,100474.22
2018-12-27T03:31:02.857Z,100473.22
2018-12-27T03:33:32.677Z,100480.84
2018-12-27T03:36:02.480Z,100482.17
2018-12-27T03:38:32.450Z,100465.28
2018-12-27T03:41:01.999Z,100470.59
2018-12-27T03:43:36.557Z,100468.43
2018-12-27T03:46:06.484Z,100468.92
2018-12-27T03:48:36.134Z,100467.13
2018-12-27T03:51:05.682Z,100470.77
2018-12-27T03:53:35.775Z,100470.27
2018-12-27T03:56:17.030Z,100467.13
2018-12-27T03:58:50.511Z,100469.42
2018-12-27T04:01:20.057Z,100470.75
2018-12-27T04:03:49.594Z,100471.58
2018-12-27T04:06:19.191Z,100470.61
2018-12-27T04:08:48.971Z,100468.78
2018-12-27T04:11:18.634Z,100463.14
2018-12-27T04:13:48.452Z,100467.78
2018-12-27T04:16:19.889Z,100460.65
2018-12-27T04:18:49.379Z,100461.48
2018-12-27T04:21:18.863Z,100458.00
2018-12-27T04:23:48.829Z,100463.64
2018-12-27T04:26:18.422Z,100465.80
2018-12-27T04:29:06.732Z,100456.34
2018-12-27T04:31:36.652Z,100464.95
2018-12-27T04:34:09.658Z,100462.14
2018-12-27T04:36:37.868Z,100462.33
2018-12-27T04:39:19.396Z,100458.69
2018-12-27T04:42:28.713Z,100449.73
2018-12-27T04:44:58.286Z,100451.55
2018-12-27T04:47:27.710Z,100458.84
2018-12-27T04:49:57.321Z,100457.52
2018-12-27T04:52:26.797Z,100457.02
2018-12-27T04:54:56.308Z,100456.84
2018-12-27T04:57:25.857Z,100458.67
2018-12-27T05:00:14.123Z,100459.33
2018-12-27T05:02:44.145Z,100458.34
2018-12-27T05:05:13.618Z,100457.34
2018-12-27T05:07:43.073Z,100454.36
2018-12-27T05:12:49.061Z,100464.16
2018-12-27T05:15:18.640Z,100455.19
2018-12-27T05:17:48.101Z,100450.55
2018-12-27T05:20:17.629Z,100446.89
2018-12-27T05:22:47.306Z,100453.36
2018-12-27T05:25:16.723Z,100462.34
2018-12-27T05:27:46.161Z,100460.84
2018-12-27T05:30:15.575Z,100454.88
2018-12-27T05:32:45.171Z,100446.75
2018-12-27T05:35:14.716Z,100452.88
2018-12-27T05:37:44.361Z,100450.56
2018-12-27T05:40:13.852Z,100454.21
2018-12-27T05:42:43.839Z,100449.23
2018-12-27T05:45:13.334Z,100450.90
2018-12-27T05:47:42.899Z,100461.17
2018-12-27T05:50:12.425Z,100461.52
2018-12-27T05:52:46.159Z,100461.31
2018-12-27T05:55:15.655Z,100456.37
2018-12-27T05:57:48.010Z,100470.13
2018-12-27T06:00:17.472Z,100472.94
2018-12-27T06:02:47.048Z,100471.12
2018-12-27T06:05:16.806Z,100474.11
2018-12-27T06:07:46.252Z,100466.98
2018-12-27T06:10:34.912Z,100458.19
2018-12-27T06:13:04.496Z,100467.45
2018-12-27T06:15:33.983Z,100463.80
2018-12-27T06:18:03.450Z,100472.59
2018-12-27T06:20:32.939Z,100462.81
2018-12-27T06:23:02.365Z,100460.49
2018-12-27T06:25:31.895Z,100457.17
2018-12-27T06:28:01.489Z,100452.86
2018-12-27T06:30:31.133Z,100457.02
2018-12-27T06:33:01.074Z,100455.18
2018-12-27T06:35:44.967Z,100456.20
2018-12-27T06:38:13.660Z,100459.69
2018-12-27T06:46:02.242Z,100458.34
2018-12-27T06:48:31.647Z,100448.07
2018-12-27T06:51:01.359Z,100454.53
2018-12-27T06:53:32.523Z,100450.72
2018-12-27T06:56:02.338Z,100448.73
2018-12-27T06:58:37.747Z,100443.60
2018-12-27T07:01:03.534Z,100446.42
2018-12-27T07:03:44.160Z,100431.83
2018-12-27T07:06:14.116Z,100439.93
2018-12-27T07:08:43.570Z,100434.63
2018-12-27T07:11:13.154Z,100435.95
2018-12-27T07:14:01.986Z,100438.61
2018-12-27T07:16:31.483Z,100436.29
2018-12-27T07:19:10.112Z,100428.00
2018-12-27T07:21:41.594Z,100428.00
2018-12-27T07:24:11.210Z,100416.05
2018-12-27T07:26:40.840Z,100431.13
2018-12-27T07:29:10.283Z,100434.80
2018-12-27T07:31:39.800Z,100430.49
2018-12-27T07:34:10.132Z,100426.02
2018-12-27T07:36:39.763Z,100428.31
2018-12-27T07:39:28.447Z,100430.80
2018-12-27T07:42:11.773Z,100430.80
2018-12-27T07:44:41.427Z,100419.69
2018-12-27T07:47:11.377Z,100419.03
2018-12-27T07:49:42.999Z,100408.08
2018-12-27T07:52:14.337Z,100409.07
2018-12-27T07:54:43.908Z,100412.23
2018-12-27T07:57:13.433Z,100414.22
2018-12-27T07:59:43.124Z,100400.45
2018-12-27T08:02:12.904Z,100416.05
2018-12-27T08:04:42.375Z,100414.38
2018-12-27T08:07:17.382Z,100408.05
2018-12-27T08:09:46.891Z,100408.55
2018-12-27T08:12:19.379Z,100410.04
2018-12-27T08:14:49.030Z,100413.36
2018-12-27T08:17:19.479Z,100418.66
2018-12-27T08:19:51.471Z,100416.34
2018-12-27T08:22:20.992Z,100413.69
2018-12-27T08:27:39.087Z,100407.22
2018-12-27T08:30:09.146Z,100407.85
2018-12-27T08:32:40.143Z,100413.52
2018-12-27T08:35:11.680Z,100415.18
2018-12-27T08:37:40.876Z,100412.66
2018-12-27T08:40:10.466Z,100403.20
2018-12-27T08:42:40.179Z,100405.52
2018-12-27T08:45:21.589Z,100397.72
2018-12-27T08:47:51.049Z,100394.58
2018-12-27T08:50:20.548Z,100391.09
2018-12-27T08:53:25.887Z,100393.41
2018-12-27T08:55:55.682Z,100383.63
2018-12-27T08:58:25.677Z,100378.98
2018-12-27T09:00:55.250Z,100378.81
2018-12-27T09:03:24.735Z,100376.81
2018-12-27T09:05:54.308Z,100379.80
2018-12-27T09:08:26.302Z,100375.48
2018-12-27T09:10:55.811Z,100380.80
2018-12-27T09:13:25.758Z,100387.73
2018-12-27T09:15:57.338Z,100381.59
2018-12-27T09:18:26.839Z,100377.80
2018-12-27T09:20:56.407Z,100386.92
2018-12-27T09:23:25.899Z,100379.95
2018-12-27T09:25:55.343Z,100376.41
2018-12-27T09:28:24.874Z,100377.06
2018-12-27T09:30:54.412Z,100377.34
2018-12-27T09:33:23.915Z,100369.70
2018-12-27T09:36:15.152Z,100366.20
2018-12-27T09:38:59.486Z,100361.72
2018-12-27T09:41:40.391Z,100352.76
2018-12-27T09:44:10.247Z,100349.27
2018-12-27T09:46:39.882Z,100347.45
2018-12-27T09:49:10.059Z,100337.15
2018-12-27T09:51:39.727Z,100331.45
2018-12-27T09:54:28.382Z,100332.91
2018-12-27T09:56:57.994Z,100318.08
2018-12-27T09:59:27.425Z,100316.70
2018-12-27T10:01:57.085Z,100316.98
2018-12-27T10:04:26.613Z,100306.83
2018-12-27T10:06:56.122Z,100301.94
2018-12-27T10:09:25.638Z,100296.92
2018-12-27T10:11:55.082Z,100292.91
2018-12-27T10:14:24.532Z,100290.84
2018-12-27T10:17:13.002Z,100296.78
2018-12-27T10:19:44.232Z,100297.78
2018-12-27T10:22:14.008Z,100296.45
2018-12-27T10:24:43.526Z,100295.45
2018-12-27T10:27:13.100Z,100288.80
2018-12-27T10:30:03.011Z,100286.32
2018-12-27T10:32:44.298Z,100279.00
2018-12-27T10:35:13.870Z,100276.92
2018-12-27T10:37:43.892Z,100270.92
2018-12-27T10:40:13.907Z,100268.59
2018-12-27T10:42:43.587Z,100264.92
2018-12-27T10:45:13.447Z,100258.09
2018-12-27T10:47:43.130Z,100255.58
2018-12-27T10:50:31.637Z,100257.56
2018-12-27T10:58:41.156Z,100239.44
2018-12-27T11:01:22.930Z,100237.61
2018-12-27T11:03:52.814Z,100240.45
2018-12-27T11:06:22.334Z,100243.44
2018-12-27T11:09:12.468Z,100239.12
2018-12-27T11:11:42.282Z,100242.61
2018-12-27T11:14:12.001Z,100243.79
2018-12-27T11:16:41.576Z,100243.79
2018-12-27T11:22:31.641Z,100241.48
2018-12-27T11:25:01.253Z,100227.00
2018-12-27T11:27:30.665Z,100228.52
2018-12-27T11:32:35.864Z,100214.89
2018-12-27T11:35:05.567Z,100220.53
2018-12-27T11:37:35.141Z,100220.03
2018-12-27T11:40:04.768Z,100220.36
2018-12-27T11:42:37.631Z,100216.83
2018-12-27T11:45:07.443Z,100216.95
2018-12-27T11:47:36.865Z,100219.17
2018-12-27T11:50:06.857Z,100211.69
2018-12-27T11:52:36.299Z,100216.36
2018-12-27T11:55:14.053Z,100209.25
2018-12-27T11:57:43.518Z,100210.26
2018-12-27T12:00:16.054Z,100213.59
2018-12-27T12:03:05.903Z,100208.99
2018-12-27T12:05:35.621Z,100203.14
2018-12-27T12:08:05.046Z,100203.78
2018-12-27T12:10:34.800Z,100199.15
2018-12-27T12:13:04.235Z,100203.67
2018-12-27T12:15:33.680Z,100205.80
2018-12-27T12:18:03.107Z,100196.81
2018-12-27T12:20:32.536Z,100198.97
2018-12-27T12:23:02.373Z,100194.05
2018-12-27T12:25:34.332Z,100198.72
2018-12-27T12:28:05.848Z,100200.22
2018-12-27T12:30:35.464Z,100194.44
2018-12-27T12:33:05.196Z,100200.29
2018-12-27T12:35:34.620Z,100196.52
2018-12-27T12:38:04.516Z,100192.87
2018-12-27T12:40:36.373Z,100189.16
2018-12-27T12:43:08.364Z,100188.86
2018-12-27T12:45:37.785Z,100195.30
2018-12-27T12:48:07.486Z,100189.47
2018-12-27T12:50:36.918Z,100190.48
2018-12-27T12:53:06.743Z,100184.34
2018-12-27T12:55:36.481Z,100180.17
2018-12-27T13:00:58.579Z,100183.98
2018-12-27T13:03:27.979Z,100179.81
2018-12-27T13:06:34.375Z,100177.44
2018-12-27T13:11:48.114Z,100178.52
2018-12-27T13:14:17.766Z,100166.52
2018-12-27T13:16:47.400Z,100161.84
2018-12-27T13:19:19.291Z,100156.16
2018-12-27T13:21:48.689Z,100156.98
2018-12-27T13:24:18.117Z,100153.50
2018-12-27T13:26:47.568Z,100152.86
2018-12-27T13:29:17.178Z,100153.86
2018-12-27T13:31:46.681Z,100157.02
2018-12-27T13:34:16.469Z,100159.73
2018-12-27T13:36:46.262Z,100161.23
2018-12-27T13:39:15.897Z,100162.89
2018-12-27T13:44:23.216Z,100151.49
2018-12-27T13:47:04.772Z,100152.50
2018-12-27T13:49:45.119Z,100142.37
2018-12-27T13:52:15.476Z,100145.45
2018-12-27T13:54:44.956Z,100148.77
2018-12-27T13:57:14.386Z,100157.64
2018-12-27T13:59:44.112Z,100149.34
2018-12-27T14:02:13.624Z,100157.81
2018-12-27T14:04:43.209Z,100152.18
2018-12-27T14:07:15.486Z,100155.70
2018-12-27T14:09:45.158Z,100154.41
2018-12-27T14:12:14.577Z,100157.06
2018-12-27T14:14:44.112Z,100153.47
2018-12-27T14:17:13.625Z,100152.50
2018-12-27T14:19:43.212Z,100150.16
2018-12-27T14:22:12.783Z,100144.98
2018-12-27T14:24:42.329Z,100144.78
2018-12-27T14:27:11.876Z,100137.12
2018-12-27T14:29:41.336Z,100139.28
2018-12-27T14:32:13.831Z,100134.42
2018-12-27T14:34:43.416Z,100139.20
2018-12-27T14:37:13.041Z,100136.22
2018-12-27T14:39:42.642Z,100131.09
2018-12-27T14:42:12.327Z,100133.06
2018-12-27T14:44:41.931Z,100133.42
2018-12-27T14:47:11.388Z,100130.08
2018-12-27T14:49:40.929Z,100137.19
2018-12-27T14:52:10.553Z,100134.21
2018-12-27T14:59:59.756Z,100142.91
2018-12-27T15:02:41.051Z,100139.75
2018-12-27T15:05:11.294Z,100140.75
2018-12-27T15:07:40.911Z,100147.91
2018-12-27T15:10:12.054Z,100138.59
2018-12-27T15:12:41.622Z,100147.22
2018-12-27T15:15:11.192Z,100155.87
2018-12-27T15:17:40.877Z,100153.08
2018-12-27T15:20:10.590Z,100152.97
2018-12-27T15:22:54.168Z,100155.34
2018-12-27T15:25:11.311Z,100157.53
2018-12-27T15:27:52.511Z,100158.36
2018-12-27T15:30:21.946Z,100161.55
2018-12-27T15:32:51.358Z,100159.49
2018-12-27T15:35:39.999Z,100161.50
2018-12-27T15:38:10.073Z,100163.98
2018-12-27T15:40:39.781Z,100163.48
2018-12-27T15:43:09.287Z,100164.80
2018-12-27T15:45:38.710Z,100167.47
2018-12-27T15:48:08.177Z,100173.11
2018-12-27T15:50:37.852Z,100171.27
2018-12-27T15:53:07.294Z,100165.13
2018-12-27T15:55:36.783Z,100171.09
2018-12-27T15:58:06.530Z,100171.27
2018-12-27T16:00:36.055Z,100166.48
2018-12-27T16:03:05.547Z,100170.86
2018-12-27T16:05:35.022Z,100168.23
2018-12-27T16:08:04.480Z,100173.23
2018-12-27T16:10:35.324Z,100167.91
2018-12-27T16:13:05.164Z,100174.05
2018-12-27T16:21:11.159Z,100168.92
2018-12-27T16:23:40.802Z,100173.88
2018-12-27T16:26:10.359Z,100169.71
2018-12-27T16:28:39.847Z,100169.89
2018-12-27T16:31:09.296Z,100172.22
2018-12-27T16:33:38.808Z,100174.73
2018-12-27T16:36:08.816Z,100171.58
2018-12-27T16:38:38.278Z,100173.08
2018-12-27T16:41:07.741Z,100172.43
2018-12-27T16:43:37.223Z,100176.48
2018-12-27T16:46:07.124Z,100176.15
2018-12-27T16:48:36.681Z,100175.00
2018-12-27T16:51:06.217Z,100171.69
2018-12-27T16:53:35.942Z,100175.38
2018-12-27T16:56:05.395Z,100177.70
2018-12-27T16:58:34.806Z,100183.41
2018-12-27T17:01:04.606Z,100187.91
2018-12-27T17:03:34.064Z,100188.59
2018-12-27T17:06:03.685Z,100189.61
2018-12-27T17:08:33.311Z,100192.16
2018-12-27T17:11:02.920Z,100190.84
2018-12-27T17:13:32.342Z,100192.84
2018-12-27T17:16:02.128Z,100193.20
2018-12-27T17:18:42.934Z,100188.06
2018-12-27T17:21:12.437Z,100190.92
2018-12-27T17:23:42.218Z,100192.25
2018-12-27T17:26:11.776Z,100195.58
2018-12-27T17:28:41.472Z,100196.25
2018-12-27T17:31:11.008Z,100195.12
2018-12-27T17:33:40.432Z,100200.28
2018-12-27T17:36:10.009Z,100200.64
2018-12-27T17:38:39.459Z,100205.50
2018-12-27T17:41:08.912Z,100206.50
2018-12-27T17:43:38.554Z,100209.00
2018-12-27T17:46:07.971Z,100194.13
2018-12-27T17:48:37.432Z,100199.44
2018-12-27T17:51:07.039Z,100205.42
2018-12-27T17:53:36.496Z,100211.22
2018-12-27T17:56:05.930Z,100207.25
2018-12-27T17:58:35.374Z,100214.05
2018-12-27T18:01:04.780Z,100213.89
2018-12-27T18:03:34.261Z,100218.87
2018-12-27T18:06:03.733Z,100219.86
2018-12-27T18:08:33.266Z,100219.91
2018-12-27T18:11:02.797Z,100222.86
2018-12-27T18:13:32.481Z,100220.86
2018-12-27T18:16:01.963Z,100220.36
2018-12-27T18:18:31.363Z,100225.17
2018-12-27T18:21:12.494Z,100230.80
2018-12-27T18:23:42.360Z,100230.64
2018-12-27T18:26:11.914Z,100230.86
2018-12-27T18:28:41.532Z,100235.02
2018-12-27T18:31:10.971Z,100242.84
2018-12-27T18:33:40.462Z,100248.98
2018-12-27T18:38:45.456Z,100250.02
2018-12-27T18:41:15.498Z,100253.67
2018-12-27T18:43:45.106Z,100255.49
2018-12-27T18:46:14.510Z,100245.22
2018-12-27T18:48:44.198Z,100255.83
2018-12-27T18:51:13.703Z,100253.67
2018-12-27T18:53:43.278Z,100255.16
2018-12-27T18:56:13.273Z,100255.16
2018-12-27T18:58:43.303Z,100256.69
2018-12-27T19:01:12.711Z,100252.05
2018-12-27T19:03:42.458Z,100257.68
2018-12-27T19:06:12.114Z,100268.28
2018-12-27T19:08:41.775Z,100272.42
2018-12-27T19:11:49.347Z,100275.74
2018-12-27T19:14:31.008Z,100275.58
2018-12-27T19:17:01.417Z,100280.91
2018-12-27T19:19:30.947Z,100289.84
2018-12-27T19:22:21.569Z,100292.50
2018-12-27T19:27:44.848Z,100301.13
2018-12-27T19:33:04.516Z,100301.63
2018-12-27T19:35:34.036Z,100306.92
2018-12-27T19:38:03.850Z,100301.63
2018-12-27T19:40:33.395Z,100299.81
2018-12-27T19:43:02.934Z,100299.81
2018-12-27T19:45:32.373Z,100319.33
2018-12-27T19:48:02.002Z,100319.33
2018-12-27T19:50:50.760Z,100322.80
2018-12-27T19:55:56.019Z,100339.38
2018-12-27T19:58:44.845Z,100324.95
2018-12-27T20:01:15.469Z,100324.95
2018-12-27T20:03:45.026Z,100329.92
2018-12-27T20:06:14.609Z,100338.36
2018-12-27T20:09:04.150Z,100347.14
2018-12-27T20:11:33.849Z,100347.14
2018-12-27T20:14:03.405Z,100356.08
2018-12-27T20:16:32.970Z,100359.91
2018-12-27T20:19:02.403Z,100350.28
2018-12-27T20:21:31.866Z,100357.89
2018-12-27T20:24:01.476Z,100353.27
2018-12-27T20:26:31.007Z,100353.27
2018-12-27T20:29:01.614Z,100351.44
2018-12-27T20:31:31.227Z,100368.81
2018-12-27T20:34:00.676Z,100363.67
2018-12-27T20:36:30.261Z,100362.34
2018-12-27T20:39:02.402Z,100355.74
2018-12-27T20:41:50.725Z,100359.22
2018-12-27T20:44:20.461Z,100361.36
2018-12-27T20:46:50.125Z,100355.39
2018-12-27T20:49:19.551Z,100359.67
2018-12-27T20:51:49.257Z,100364.81
2018-12-27T20:54:38.102Z,100349.59
2018-12-27T20:57:07.597Z,100349.59
2018-12-27T20:59:37.060Z,100368.61
2018-12-27T21:02:06.851Z,100366.47
2018-12-27T21:04:55.726Z,100364.79
2018-12-27T21:07:25.168Z,100364.79
2018-12-27T21:10:15.374Z,100371.58
2018-12-27T21:12:46.508Z,100371.58
2018-12-27T21:15:35.051Z,100374.55
2018-12-27T21:18:04.852Z,100374.39
2018-12-27T21:20:34.317Z,100379.53
2018-12-27T21:23:03.854Z,100388.64
2018-12-27T21:25:33.436Z,100386.80
2018-12-27T21:28:03.028Z,100382.00
2018-12-27T21:30:32.471Z,100383.33
2018-12-27T21:33:04.309Z,100384.97
2018-12-27T21:35:33.743Z,100384.62
2018-12-27T21:38:06.117Z,100392.56
2018-12-27T21:40:35.577Z,100385.64
2018-12-27T21:43:05.206Z,100386.13
2018-12-27T21:45:53.622Z,100388.44
2018-12-27T21:48:42.310Z,100383.14
2018-12-27T21:51:12.494Z,100388.95
2018-12-27T21:56:30.619Z,100385.81
2018-12-27T21:59:00.105Z,100394.73
2018-12-27T22:01:29.535Z,100397.88
2018-12-27T22:04:01.002Z,100395.39
2018-12-27T22:06:30.466Z,100405.98
2018-12-27T22:09:03.083Z,100396.23
2018-12-27T22:11:32.546Z,100408.31
2018-12-27T22:14:04.892Z,100410.96
2018-12-27T22:16:34.366Z,100413.95
2018-12-27T22:19:03.851Z,100411.80
2018-12-27T22:21:33.383Z,100410.96
2018-12-27T22:24:04.503Z,100411.44
2018-12-27T22:26:37.637Z,100421.53
2018-12-27T22:29:07.860Z,100418.73
2018-12-27T22:31:37.334Z,100421.54
2018-12-27T22:34:06.793Z,100422.03
2018-12-27T22:36:36.293Z,100423.35
2018-12-27T22:39:08.321Z,100429.81
2018-12-27T22:41:37.726Z,100430.31
2018-12-27T22:44:07.249Z,100426.00
2018-12-27T22:46:38.831Z,100429.14
2018-12-27T22:49:08.254Z,100428.80
2018-12-27T22:51:37.654Z,100428.98
2018-12-27T22:54:07.285Z,100431.97
2018-12-27T22:56:58.418Z,100425.35
2018-12-27T22:59:27.851Z,100425.35
2018-12-27T23:02:01.751Z,100432.95
2018-12-27T23:04:31.236Z,100438.73
2018-12-27T23:07:18.552Z,100435.27
2018-12-27T23:09:47.970Z,100442.72
2018-12-27T23:15:06.071Z,100447.30
2018-12-27T23:17:35.483Z,100449.61
2018-12-27T23:20:05.065Z,100450.60
2018-12-27T23:25:09.861Z,100452.60
2018-12-27T23:27:39.536Z,100458.23
2018-12-27T23:30:09.376Z,100460.54
2018-12-27T23:32:38.815Z,100461.22
2018-12-27T23:35:08.305Z,100468.30
2018-12-27T23:38:17.686Z,100477.07
2018-12-27T23:41:06.301Z,100477.07
2018-12-27T23:43:46.819Z,100482.18
2018-12-27T23:46:16.617Z,100481.53
2018-12-27T23:49:04.926Z,100489.78
2018-12-27T23:51:34.496Z,100491.44
2018-12-27T23:54:15.796Z,100481.80
2018-12-27T23:56:45.244Z,100492.27
2018-12-27T23:59:15.064Z,100489.59
